Terminal Aerodrome Forecast
Issued by NWS Blacksburg, VA

Home | Current Version | Previous Version | Text Only | Print | Product List | Glossary On
Versions: 1 2 3 4 5 6 7 8 9 10 11 12 13 14 15 16 17 18 19 20 21 22 23
000
FTUS41 KRNK 282327
TAFROA
TAF
KROA 282327Z 2900/2924 25006KT P6SM SCT025 OVC080
      TEMPO 2900/2903 5SM -DZ OVC020
     FM290400 VRB03KT 6SM -RA BR SCT008 OVC025
     FM290900 30003KT 6SM -RADZ BR BKN007 OVC015
     FM291400 02003KT 4SM -RA BR BKN005 OVC020
     FM291900 10004KT 2SM -DZ BR OVC003=

USA.gov is the U.S. government's official web portal to all federal, state and local government web resources and services.